Time;durP1;ratioP1;P1;durP2;ratioP2;P2;SDS_P1;SDS_P2;PMS_P1;PMS_P2;Temp;Humidity;BMP_temperature;BMP_pressure;BME280_temperature;BME280_humidity;BME280_pressure;Samples;Min_cycle;Max_cycle;Signal;HPM_P1;HPM_P2
2022/06/25 00:02:02;;;;;;;24.90;12.70;;;;;;;;;;5029237;28;20057;-67
2022/06/25 00:07:22;;;;;;;15.40;7.93;;;;;;;;;;5014722;28;20076;-67
2022/06/25 00:09:52;;;;;;;11.32;6.63;;;;;;;;;;5069040;28;20049;-67
2022/06/25 00:12:34;;;;;;;12.13;7.10;;;;;;;;;;5069202;28;20053;-67
2022/06/25 00:15:07;;;;;;;12.63;7.55;;;;;;;;;;5068934;28;20467;-66
2022/06/25 00:17:37;;;;;;;;;;;;;;;;;;5035876;28;20075;-66
2022/06/25 00:20:08;;;;;;;20.15;11.25;;;;;;;;;;5068997;28;19921;-66
2022/06/25 00:22:38;;;;;;;12.45;7.03;;;;;;;;;;5019292;28;20056;-66
2022/06/25 00:25:09;;;;;;;24.00;13.85;;;;;;;;;;5069065;28;20075;-66
2022/06/25 00:27:39;;;;;;;14.63;7.68;;;;;;;;;;5068735;28;20067;-66
2022/06/25 00:30:10;;;;;;;14.95;7.28;;;;;;;;;;5028716;28;20058;-66
2022/06/25 00:32:40;;;;;;;16.25;8.35;;;;;;;;;;5037460;28;20053;-66
2022/06/25 00:35:11;;;;;;;12.90;6.65;;;;;;;;;;5048779;28;20093;-66
2022/06/25 00:37:42;;;;;;;13.82;6.85;;;;;;;;;;5032457;28;20057;-67
2022/06/25 00:40:13;;;;;;;13.38;7.15;;;;;;;;;;5048830;28;20060;-66
2022/06/25 00:42:45;;;;;;;12.98;6.78;;;;;;;;;;5048817;28;20053;-67
2022/06/25 00:45:15;;;;;;;14.25;7.60;;;;;;;;;;5015728;28;20123;-67
2022/06/25 00:47:47;;;;;;;12.65;7.30;;;;;;;;;;5031899;28;20048;-66
2022/06/25 00:50:17;;;;;;;12.73;6.82;;;;;;;;;;5028614;28;20052;-67
2022/06/25 00:52:52;;;;;;;11.02;6.68;;;;;;;;;;5028762;28;20072;-67
2022/06/25 00:55:30;;;;;;;15.13;7.82;;;;;;;;;;5028728;28;20421;-66
2022/06/25 00:58:02;;;;;;;12.57;6.45;;;;;;;;;;5012056;28;20135;-67
2022/06/25 01:00:33;;;;;;;13.10;6.43;;;;;;;;;;5032322;28;20433;-67
2022/06/25 01:03:03;;;;;;;14.98;6.97;;;;;;;;;;4998870;28;20053;-67
2022/06/25 01:05:33;;;;;;;12.43;6.82;;;;;;;;;;5015290;28;20053;-66
2022/06/25 01:08:03;;;;;;;12.25;6.25;;;;;;;;;;5048251;28;20532;-66
2022/06/25 01:10:34;;;;;;;13.13;6.18;;;;;;;;;;5048374;28;20059;-66
2022/06/25 01:13:05;;;;;;;14.40;6.22;;;;;;;;;;5008445;28;20053;-66
2022/06/25 01:15:35;;;;;;;10.38;6.28;;;;;;;;;;5008799;28;20054;-66
2022/06/25 01:18:07;;;;;;;11.85;6.03;;;;;;;;;;4993115;28;20062;-66
2022/06/25 01:20:38;;;;;;;10.90;5.82;;;;;;;;;;5008870;28;20054;-66
2022/06/25 01:23:08;;;;;;;11.18;6.40;;;;;;;;;;5008612;28;20438;-66
2022/06/25 01:25:40;;;;;;;11.25;5.90;;;;;;;;;;5008977;28;20057;-66
2022/06/25 01:28:10;;;;;;;13.20;6.13;;;;;;;;;;4986714;28;20061;-66
2022/06/25 01:30:40;;;;;;;10.30;5.10;;;;;;;;;;5012129;28;20058;-66
2022/06/25 01:33:11;;;;;;;11.63;5.20;;;;;;;;;;5012201;28;20100;-66
2022/06/25 01:35:42;;;;;;;11.30;5.43;;;;;;;;;;4949024;28;20065;-66
2022/06/25 01:38:12;;;;;;;9.35;5.28;;;;;;;;;;5012075;28;20053;-66
2022/06/25 01:40:43;;;;;;;9.68;5.28;;;;;;;;;;5011997;28;20077;-66
2022/06/25 01:43:13;;;;;;;12.40;5.30;;;;;;;;;;4991938;28;20046;-66
2022/06/25 01:45:44;;;;;;;8.32;4.93;;;;;;;;;;5011635;28;20061;-66
2022/06/25 01:48:15;;;;;;;9.98;4.78;;;;;;;;;;5011809;28;20062;-66
2022/06/25 01:50:45;;;;;;;9.90;5.07;;;;;;;;;;4978908;28;20530;-66
2022/06/25 01:53:16;;;;;;;9.05;4.65;;;;;;;;;;5031242;28;20055;-66
2022/06/25 01:55:46;;;;;;;9.13;4.93;;;;;;;;;;5014464;28;20049;-66
2022/06/25 01:58:17;;;;;;;9.18;4.75;;;;;;;;;;5011047;28;20053;-66
2022/06/25 02:00:50;;;;;;;13.45;5.43;;;;;;;;;;5011243;28;20532;-66
2022/06/25 02:03:21;;;;;;;8.73;4.80;;;;;;;;;;4994955;28;20049;-66
2022/06/25 02:05:58;;;;;;;8.95;4.95;;;;;;;;;;4991402;28;20046;-66
2022/06/25 02:08:30;;;;;;;9.63;4.93;;;;;;;;;;4991882;28;20058;-66
2022/06/25 02:11:03;;;;;;;8.45;4.72;;;;;;;;;;4959990;28;20055;-66
2022/06/25 02:13:34;;;;;;;10.85;5.13;;;;;;;;;;4991921;28;20054;-66
2022/06/25 02:16:06;;;;;;;9.70;4.72;;;;;;;;;;4991749;28;20053;-66
2022/06/25 02:18:36;;;;;;;8.68;4.57;;;;;;;;;;4991546;28;20077;-67
2022/06/25 02:21:07;;;;;;;9.32;4.68;;;;;;;;;;4995226;28;20053;-66
2022/06/25 02:23:37;;;;;;;8.75;4.22;;;;;;;;;;4982915;28;20046;-67
2022/06/25 02:26:07;;;;;;;9.05;4.82;;;;;;;;;;4991449;28;20062;-67
2022/06/25 02:28:37;;;;;;;8.85;4.22;;;;;;;;;;4991588;28;20063;-67
2022/06/25 02:31:07;;;;;;;9.77;4.78;;;;;;;;;;5014838;28;20410;-67
2022/06/25 02:33:38;;;;;;;8.68;4.60;;;;;;;;;;5014498;28;20072;-67
2022/06/25 02:36:09;;;;;;;10.35;5.10;;;;;;;;;;4981607;28;20072;-67
2022/06/25 02:38:39;;;;;;;10.23;5.28;;;;;;;;;;5030512;28;20049;-67
2022/06/25 02:41:09;;;;;;;9.55;5.20;;;;;;;;;;5030439;28;20054;-67
2022/06/25 02:43:40;;;;;;;8.98;4.35;;;;;;;;;;5061334;28;20055;-67
2022/06/25 02:46:39;;;;;;;9.77;4.80;;;;;;;;;;4986306;28;20518;-67
2022/06/25 02:49:10;;;;;;;10.40;4.82;;;;;;;;;;4971528;28;20069;-67
2022/06/25 02:51:40;;;;;;;7.60;4.25;;;;;;;;;;4955360;28;20432;-67
2022/06/25 02:54:11;;;;;;;9.65;4.65;;;;;;;;;;4935866;28;20098;-67
2022/06/25 02:59:32;;;;;;;9.85;4.97;;;;;;;;;;4913689;29;20059;-67
2022/06/25 03:02:04;;;;;;;9.50;4.95;;;;;;;;;;4894853;29;20049;-67
2022/06/25 03:04:37;;;;;;;8.48;5.10;;;;;;;;;;4894748;29;20061;-67
2022/06/25 03:07:07;;;;;;;9.38;5.00;;;;;;;;;;4894596;29;20053;-67
2022/06/25 03:09:38;;;;;;;9.85;5.22;;;;;;;;;;4894979;29;20068;-67
2022/06/25 03:12:08;;;;;;;9.00;4.90;;;;;;;;;;4894956;29;20060;-67
2022/06/25 03:14:41;;;;;;;8.50;4.45;;;;;;;;;;4891718;29;20402;-67
2022/06/25 03:17:12;;;;;;;7.47;4.18;;;;;;;;;;4894467;29;20521;-67
2022/06/25 03:20:03;;;;;;;6.75;4.13;;;;;;;;;;4894123;29;20049;-67
2022/06/25 03:22:45;;;;;;;10.82;5.05;;;;;;;;;;4913220;29;20816;-67
2022/06/25 03:25:16;;;;;;;9.80;4.40;;;;;;;;;;4898166;29;20196;-67
2022/06/25 03:27:47;;;;;;;10.77;5.45;;;;;;;;;;4930416;29;20060;-67
2022/06/25 03:30:17;;;;;;;10.25;5.35;;;;;;;;;;4932689;29;20055;-67
2022/06/25 03:32:49;;;;;;;9.63;4.80;;;;;;;;;;4914900;29;20524;-67
2022/06/25 03:35:48;;;;;;;11.30;5.10;;;;;;;;;;4894617;29;20060;-67
2022/06/25 03:38:24;;;;;;;9.93;4.72;;;;;;;;;;4950511;28;20059;-67
2022/06/25 03:41:32;;;;;;;8.82;4.78;;;;;;;;;;4914156;29;20067;-67
2022/06/25 03:43:49;;;;;;;8.77;4.38;;;;;;;;;;4932069;29;20063;-67
2022/06/25 03:46:21;;;;;;;8.13;4.45;;;;;;;;;;4944073;28;20100;-67
2022/06/25 03:48:53;;;;;;;9.00;4.57;;;;;;;;;;4914773;29;20055;-67
2022/06/25 03:51:58;;;;;;;8.65;4.90;;;;;;;;;;4942864;29;20052;-67
2022/06/25 03:54:29;;;;;;;8.20;4.88;;;;;;;;;;4918154;29;20056;-67
2022/06/25 03:56:59;;;;;;;8.02;4.25;;;;;;;;;;4932092;29;20499;-67
2022/06/25 03:59:42;;;;;;;9.13;5.03;;;;;;;;;;4950971;29;20491;-67
2022/06/25 04:02:28;;;;;;;8.57;4.63;;;;;;;;;;4950943;29;20075;-67
2022/06/25 04:05:16;;;;;;;9.85;5.30;;;;;;;;;;4951420;28;20062;-67
2022/06/25 04:07:47;;;;;;;9.60;4.85;;;;;;;;;;4950994;29;20070;-67
2022/06/25 04:10:17;;;;;;;8.57;4.68;;;;;;;;;;4899213;29;20070;-67
2022/06/25 04:12:47;;;;;;;8.27;4.45;;;;;;;;;;4906858;29;20436;-67
2022/06/25 04:15:18;;;;;;;7.40;4.85;;;;;;;;;;4912511;29;20056;-67
2022/06/25 04:17:48;;;;;;;8.32;4.43;;;;;;;;;;4912718;29;20170;-67
2022/06/25 04:20:19;;;;;;;7.63;4.43;;;;;;;;;;4913236;29;20063;-67
2022/06/25 04:22:49;;;;;;;9.13;4.30;;;;;;;;;;4931878;29;20059;-67
2022/06/25 04:25:20;;;;;;;8.88;4.93;;;;;;;;;;4931958;29;20373;-67
2022/06/25 04:30:38;;;;;;;8.45;4.22;;;;;;;;;;4950592;29;20389;-67
2022/06/25 04:33:10;;;;;;;10.18;4.45;;;;;;;;;;4951139;29;20096;-67
2022/06/25 04:36:05;;;;;;;7.95;4.25;;;;;;;;;;4976350;28;20065;-67
2022/06/25 04:38:46;;;;;;;7.25;4.47;;;;;;;;;;5033180;28;20045;-67
2022/06/25 04:41:17;;;;;;;8.27;4.63;;;;;;;;;;4960419;28;20534;-67
2022/06/25 04:43:51;;;;;;;8.15;4.07;;;;;;;;;;4973988;28;20058;-67
2022/06/25 04:46:24;;;;;;;9.88;4.32;;;;;;;;;;4989069;28;20066;-67
2022/06/25 04:48:59;;;;;;;7.80;4.55;;;;;;;;;;4969582;28;20062;-67
2022/06/25 04:51:40;;;;;;;11.73;5.05;;;;;;;;;;4921695;28;20411;-68
2022/06/25 04:54:14;;;;;;;8.98;5.13;;;;;;;;;;4931487;29;20056;-67
2022/06/25 04:56:49;;;;;;;8.38;4.78;;;;;;;;;;4912256;29;20048;-68
2022/06/25 04:59:20;;;;;;;9.35;5.03;;;;;;;;;;4931002;28;20055;-68
2022/06/25 05:01:52;;;;;;;8.82;4.78;;;;;;;;;;4931342;29;20060;-68
2022/06/25 05:04:44;;;;;;;9.93;4.93;;;;;;;;;;4896658;29;20063;-68
2022/06/25 05:07:14;;;;;;;10.57;5.68;;;;;;;;;;4910037;29;20480;-68
2022/06/25 05:09:45;;;;;;;10.15;5.43;;;;;;;;;;4935204;29;20428;-67
2022/06/25 05:15:07;;;;;;;8.20;4.88;;;;;;;;;;4950565;28;20056;-67
2022/06/25 05:17:38;;;;;;;8.80;4.78;;;;;;;;;;4950173;28;20051;-68
2022/06/25 05:20:11;;;;;;;9.43;4.97;;;;;;;;;;4953760;28;20059;-67
2022/06/25 05:22:42;;;;;;;11.10;5.10;;;;;;;;;;4934396;29;20048;-67
2022/06/25 05:25:12;;;;;;;11.68;5.40;;;;;;;;;;4990448;28;20454;-67
2022/06/25 05:27:43;;;;;;;8.82;5.43;;;;;;;;;;4991423;28;20058;-67
2022/06/25 05:30:14;;;;;;;9.38;4.80;;;;;;;;;;4959995;28;20061;-67
2022/06/25 05:32:44;;;;;;;8.30;4.88;;;;;;;;;;4992398;28;20074;-68
2022/06/25 05:35:15;;;;;;;9.13;4.82;;;;;;;;;;4963683;28;20055;-67
2022/06/25 05:37:46;;;;;;;9.07;4.80;;;;;;;;;;4930859;29;20082;-68
2022/06/25 05:40:18;;;;;;;9.63;5.05;;;;;;;;;;4950474;29;20390;-67
2022/06/25 05:42:48;;;;;;;10.73;4.60;;;;;;;;;;4934449;29;20452;-67
2022/06/25 05:45:18;;;;;;;9.73;5.18;;;;;;;;;;4979692;28;20085;-67
2022/06/25 05:47:49;;;;;;;9.85;4.95;;;;;;;;;;4992336;28;20069;-67
2022/06/25 05:50:20;;;;;;;8.15;4.70;;;;;;;;;;4976428;28;20062;-67
2022/06/25 05:52:50;;;;;;;10.60;4.93;;;;;;;;;;4992176;28;20058;-68
2022/06/25 05:55:20;;;;;;;8.68;4.95;;;;;;;;;;4991967;28;20083;-67
2022/06/25 05:57:51;;;;;;;10.43;5.10;;;;;;;;;;4982191;28;20043;-68
2022/06/25 06:00:22;;;;;;;9.13;5.20;;;;;;;;;;5002074;28;20046;-67
2022/06/25 06:02:51;;;;;;;9.40;5.00;;;;;;;;;;5011336;28;20556;-67
2022/06/25 06:05:22;;;;;;;9.13;4.93;;;;;;;;;;5018275;28;20060;-67
2022/06/25 06:07:52;;;;;;;11.15;5.32;;;;;;;;;;5091476;28;20048;-67
2022/06/25 06:10:22;;;;;;;11.00;5.13;;;;;;;;;;5091597;28;20080;-68
2022/06/25 06:12:52;;;;;;;10.10;5.15;;;;;;;;;;5074570;28;20056;-67
2022/06/25 06:15:23;;;;;;;9.63;5.65;;;;;;;;;;5070897;28;20059;-67
2022/06/25 06:17:53;;;;;;;12.50;5.38;;;;;;;;;;5071222;28;20057;-67
2022/06/25 06:20:23;;;;;;;10.65;5.25;;;;;;;;;;5070843;28;20107;-67
2022/06/25 06:22:53;;;;;;;11.18;5.57;;;;;;;;;;5071265;28;20048;-67
2022/06/25 06:25:24;;;;;;;11.07;5.72;;;;;;;;;;5050944;28;20056;-68
2022/06/25 06:27:55;;;;;;;10.70;5.78;;;;;;;;;;5033948;28;20413;-67
2022/06/25 06:30:25;;;;;;;10.80;5.60;;;;;;;;;;5050935;28;20127;-67
2022/06/25 06:33:02;;;;;;;10.15;4.90;;;;;;;;;;5050742;28;20061;-67
2022/06/25 06:35:32;;;;;;;10.82;5.47;;;;;;;;;;5061212;28;20060;-67
2022/06/25 06:38:02;;;;;;;9.15;5.03;;;;;;;;;;5020850;28;20052;-67
2022/06/25 06:40:32;;;;;;;9.70;5.05;;;;;;;;;;5070476;28;20488;-67
2022/06/25 06:43:03;;;;;;;11.20;5.28;;;;;;;;;;5070683;28;20057;-67
2022/06/25 06:45:34;;;;;;;9.82;5.00;;;;;;;;;;5050449;28;20658;-68
2022/06/25 06:48:05;;;;;;;11.60;6.03;;;;;;;;;;5050677;28;20166;-67
2022/06/25 06:50:35;;;;;;;9.95;4.88;;;;;;;;;;5050356;28;20429;-67
2022/06/25 06:53:06;;;;;;;11.20;5.45;;;;;;;;;;5017058;28;20533;-67
2022/06/25 06:55:36;;;;;;;8.82;4.43;;;;;;;;;;5001043;28;20053;-67
2022/06/25 06:58:06;;;;;;;9.85;5.20;;;;;;;;;;5050360;28;20057;-67
2022/06/25 07:00:37;;;;;;;11.63;5.30;;;;;;;;;;5050373;28;20049;-67
2022/06/25 07:03:07;;;;;;;9.30;4.72;;;;;;;;;;5072080;28;20079;-67
2022/06/25 07:05:37;;;;;;;8.68;4.82;;;;;;;;;;5090245;28;20052;-67
2022/06/25 07:08:20;;;;;;;10.02;4.97;;;;;;;;;;5073090;28;20051;-67
2022/06/25 07:10:51;;;;;;;9.40;4.93;;;;;;;;;;5090633;28;20062;-67
2022/06/25 07:13:21;;;;;;;7.72;4.35;;;;;;;;;;5040180;28;20059;-67
2022/06/25 07:15:51;;;;;;;9.15;4.78;;;;;;;;;;5033203;28;20544;-67
2022/06/25 07:18:21;;;;;;;10.05;5.13;;;;;;;;;;5049732;28;20053;-67
2022/06/25 07:20:51;;;;;;;9.68;5.05;;;;;;;;;;5049647;28;20057;-65
2022/06/25 07:23:22;;;;;;;9.98;4.63;;;;;;;;;;5049961;28;20056;-65
2022/06/25 07:25:52;;;;;;;12.20;5.20;;;;;;;;;;5048882;28;20053;-67
2022/06/25 07:28:23;;;;;;;8.73;5.05;;;;;;;;;;5049852;28;20516;-67
2022/06/25 07:30:53;;;;;;;8.50;4.70;;;;;;;;;;5049732;28;20068;-67
2022/06/25 07:33:23;;;;;;;10.80;4.90;;;;;;;;;;5029525;28;20058;-67
2022/06/25 07:35:53;;;;;;;9.57;5.15;;;;;;;;;;5029420;28;20429;-67
2022/06/25 07:38:24;;;;;;;10.68;5.15;;;;;;;;;;5029781;28;20057;-67
2022/06/25 07:40:54;;;;;;;8.63;4.53;;;;;;;;;;4976928;28;20045;-67
2022/06/25 07:43:27;;;;;;;9.88;4.95;;;;;;;;;;5009297;28;20481;-67
2022/06/25 07:45:58;;;;;;;10.32;4.70;;;;;;;;;;4993125;28;20066;-68
2022/06/25 07:48:29;;;;;;;9.10;4.75;;;;;;;;;;4970356;28;20123;-67
2022/06/25 07:53:48;;;;;;;8.27;4.35;;;;;;;;;;4934696;28;20166;-67
2022/06/25 07:56:18;;;;;;;10.52;4.70;;;;;;;;;;4925179;29;20059;-67
2022/06/25 07:58:48;;;;;;;9.23;4.65;;;;;;;;;;4932256;29;20067;-67
2022/06/25 08:01:19;;;;;;;8.48;4.28;;;;;;;;;;4932165;29;20067;-67
2022/06/25 08:03:49;;;;;;;9.15;4.50;;;;;;;;;;4915579;29;20070;-67
2022/06/25 08:06:20;;;;;;;11.63;4.85;;;;;;;;;;4932145;29;20066;-67
2022/06/25 08:08:50;;;;;;;9.80;5.05;;;;;;;;;;4916155;29;20067;-67
2022/06/25 08:11:20;;;;;;;10.63;5.20;;;;;;;;;;4946812;28;20042;-67
2022/06/25 08:13:50;;;;;;;9.15;5.25;;;;;;;;;;4970408;28;20493;-67
2022/06/25 08:16:22;;;;;;;13.68;4.70;;;;;;;;;;4954452;28;20137;-67
2022/06/25 08:18:53;;;;;;;7.90;4.55;;;;;;;;;;4954802;28;20055;-68
2022/06/25 08:21:24;;;;;;;8.23;4.55;;;;;;;;;;5007577;28;20057;-67
2022/06/25 08:23:54;;;;;;;9.85;5.45;;;;;;;;;;5029185;28;20189;-67
2022/06/25 08:26:24;;;;;;;9.55;4.90;;;;;;;;;;5036511;28;20049;-67
2022/06/25 08:28:55;;;;;;;10.00;5.05;;;;;;;;;;5069053;28;20619;-67
2022/06/25 08:31:25;;;;;;;11.10;5.53;;;;;;;;;;5035355;28;20055;-67
2022/06/25 08:33:55;;;;;;;11.13;4.80;;;;;;;;;;5035647;28;20052;-67
2022/06/25 08:36:25;;;;;;;11.55;5.10;;;;;;;;;;5069713;28;20436;-68
2022/06/25 08:38:56;;;;;;;10.48;4.53;;;;;;;;;;5039394;28;20130;-67
2022/06/25 08:41:28;;;;;;;10.30;4.88;;;;;;;;;;5072814;28;20048;-67
2022/06/25 08:43:58;;;;;;;10.30;4.82;;;;;;;;;;4999832;28;20053;-67
2022/06/25 08:46:29;;;;;;;10.85;4.93;;;;;;;;;;5032920;28;20394;-67
2022/06/25 08:49:01;;;;;;;10.13;4.47;;;;;;;;;;4983775;28;20559;-67
2022/06/25 08:51:33;;;;;;;13.63;5.20;;;;;;;;;;5019550;28;20053;-67
2022/06/25 08:54:05;;;;;;;;;;;;;;;;;;5003899;28;20056;-67
2022/06/25 08:56:36;;;;;;;9.32;5.10;;;;;;;;;;5052558;28;20376;-68
2022/06/25 08:59:08;;;;;;;9.52;5.35;;;;;;;;;;5052783;28;20041;-68
2022/06/25 09:01:39;;;;;;;8.40;4.70;;;;;;;;;;5052543;28;20149;-67
2022/06/25 09:04:09;;;;;;;11.32;5.30;;;;;;;;;;5012369;28;20045;-68
2022/06/25 09:06:39;;;;;;;12.82;5.40;;;;;;;;;;5012632;28;20072;-67
2022/06/25 09:09:16;;;;;;;9.65;5.20;;;;;;;;;;5012363;28;20050;-67
2022/06/25 09:11:56;;;;;;;11.43;5.35;;;;;;;;;;5012467;28;20066;-67
2022/06/25 09:14:28;;;;;;;15.32;5.32;;;;;;;;;;5012519;28;20058;-68
2022/06/25 09:17:01;;;;;;;12.45;5.15;;;;;;;;;;5012717;28;20058;-67
2022/06/25 09:19:51;;;;;;;17.05;5.53;;;;;;;;;;5012203;28;20046;-67
2022/06/25 09:22:23;;;;;;;13.55;5.07;;;;;;;;;;5028327;28;20053;-67
2022/06/25 09:24:57;;;;;;;10.43;5.35;;;;;;;;;;5015365;28;20596;-67
2022/06/25 09:27:38;;;;;;;10.95;4.88;;;;;;;;;;4992697;28;20046;-68
2022/06/25 09:30:11;;;;;;;12.32;5.18;;;;;;;;;;4995986;28;20069;-67
2022/06/25 09:32:48;;;;;;;9.95;5.30;;;;;;;;;;4979663;28;20429;-67
2022/06/25 09:35:40;;;;;;;10.80;5.10;;;;;;;;;;4996249;28;20050;-67
2022/06/25 09:38:14;;;;;;;10.20;5.30;;;;;;;;;;5011951;28;20061;-67
2022/06/25 09:40:58;;;;;;;12.15;4.93;;;;;;;;;;4963637;28;20050;-67
2022/06/25 09:43:41;;;;;;;12.43;5.47;;;;;;;;;;5012042;28;20430;-67
2022/06/25 09:46:11;;;;;;;13.65;5.28;;;;;;;;;;5001143;28;20069;-67
2022/06/25 09:48:42;;;;;;;11.98;5.53;;;;;;;;;;4998693;28;20528;-67
2022/06/25 09:51:14;;;;;;;10.73;5.05;;;;;;;;;;5031850;28;20072;-66
2022/06/25 09:54:03;;;;;;;12.30;5.43;;;;;;;;;;5031852;28;20048;-65
2022/06/25 09:56:34;;;;;;;11.32;5.03;;;;;;;;;;5021429;28;20037;-66
2022/06/25 09:59:05;;;;;;;12.48;5.75;;;;;;;;;;5051365;28;20056;-66
2022/06/25 10:01:35;;;;;;;12.27;5.55;;;;;;;;;;5051294;28;20057;-66
2022/06/25 10:04:07;;;;;;;9.98;5.43;;;;;;;;;;5052443;28;20052;-65
2022/06/25 10:06:40;;;;;;;12.63;5.60;;;;;;;;;;4989639;28;20059;-66
2022/06/25 10:09:11;;;;;;;11.95;6.03;;;;;;;;;;5055191;28;20059;-67
2022/06/25 10:11:41;;;;;;;11.25;5.45;;;;;;;;;;4985353;28;20052;-67
2022/06/25 10:14:12;;;;;;;11.77;5.53;;;;;;;;;;5051104;28;20064;-67
2022/06/25 10:16:43;;;;;;;15.45;7.20;;;;;;;;;;5030954;28;20045;-69
2022/06/25 10:19:17;;;;;;;11.07;5.20;;;;;;;;;;5030945;28;20049;-68
2022/06/25 10:21:48;;;;;;;10.52;5.55;;;;;;;;;;5015121;28;20457;-67
2022/06/25 10:24:18;;;;;;;9.98;4.88;;;;;;;;;;5031328;28;20413;-67
2022/06/25 10:26:49;;;;;;;17.67;6.97;;;;;;;;;;5031238;28;20069;-68
2022/06/25 10:29:27;;;;;;;13.80;7.00;;;;;;;;;;4971717;28;20055;-67
2022/06/25 10:32:14;;;;;;;11.27;5.82;;;;;;;;;;4972085;28;20062;-67
2022/06/25 10:34:55;;;;;;;9.95;4.88;;;;;;;;;;4958192;28;20059;-68
2022/06/25 10:37:26;;;;;;;11.38;5.45;;;;;;;;;;4952696;28;20132;-67
2022/06/25 10:39:57;;;;;;;10.45;4.40;;;;;;;;;;4920887;29;20070;-67
2022/06/25 10:45:21;;;;;;;10.68;5.07;;;;;;;;;;4971833;28;20047;-67
2022/06/25 10:47:54;;;;;;;9.60;4.32;;;;;;;;;;4972066;28;20066;-67
2022/06/25 10:50:25;;;;;;;9.48;4.05;;;;;;;;;;5008224;28;20053;-67
2022/06/25 10:53:05;;;;;;;8.95;4.53;;;;;;;;;;4962137;28;20054;-67
2022/06/25 10:55:40;;;;;;;9.52;4.50;;;;;;;;;;5030454;28;20049;-67
2022/06/25 10:58:21;;;;;;;12.05;4.88;;;;;;;;;;4974711;28;20050;-67
2022/06/25 11:01:02;;;;;;;10.00;4.30;;;;;;;;;;4990519;28;20057;-67
2022/06/25 11:03:35;;;;;;;11.07;4.78;;;;;;;;;;4990810;28;20051;-68
2022/06/25 11:06:34;;;;;;;11.90;5.30;;;;;;;;;;4984109;28;20058;-67
2022/06/25 11:09:14;;;;;;;14.13;4.47;;;;;;;;;;5030005;28;20049;-68
2022/06/25 11:11:47;;;;;;;10.02;4.35;;;;;;;;;;5030323;28;20061;-68
2022/06/25 11:14:22;;;;;;;10.18;5.45;;;;;;;;;;5030526;28;20057;-67
2022/06/25 11:16:55;;;;;;;8.88;4.47;;;;;;;;;;5030227;28;20053;-67
2022/06/25 11:19:25;;;;;;;9.02;4.18;;;;;;;;;;5029514;28;20057;-67
2022/06/25 11:21:55;;;;;;;7.90;4.03;;;;;;;;;;5029943;28;20101;-67
2022/06/25 11:24:27;;;;;;;7.53;3.70;;;;;;;;;;5013739;28;20413;-67
2022/06/25 11:29:51;;;;;;;9.27;4.15;;;;;;;;;;5057490;28;20057;-67
2022/06/25 11:32:24;;;;;;;9.18;3.33;;;;;;;;;;5069679;28;20060;-67
2022/06/25 11:34:57;;;;;;;8.02;3.67;;;;;;;;;;5069488;28;20044;-67
2022/06/25 11:37:31;;;;;;;6.35;3.03;;;;;;;;;;5069533;28;20049;-67
2022/06/25 11:40:02;;;;;;;7.72;3.85;;;;;;;;;;5049312;28;20045;-67
2022/06/25 11:42:33;;;;;;;7.90;3.60;;;;;;;;;;5049549;28;20080;-68
2022/06/25 11:45:03;;;;;;;8.20;3.53;;;;;;;;;;5049438;28;20057;-68
2022/06/25 11:47:35;;;;;;;8.10;3.78;;;;;;;;;;5026787;28;20064;-67
2022/06/25 11:50:11;;;;;;;7.32;3.10;;;;;;;;;;5029477;28;20093;-67
2022/06/25 11:52:45;;;;;;;6.70;3.20;;;;;;;;;;5009190;28;20054;-67
2022/06/25 11:55:15;;;;;;;8.27;3.20;;;;;;;;;;4970511;28;20038;-68
2022/06/25 11:57:46;;;;;;;7.35;3.67;;;;;;;;;;4989665;28;20050;-67
2022/06/25 12:00:16;;;;;;;7.20;3.67;;;;;;;;;;4941762;28;20154;-67
2022/06/25 12:02:47;;;;;;;7.90;3.78;;;;;;;;;;4989655;28;20062;-68
2022/06/25 12:05:17;;;;;;;7.45;4.03;;;;;;;;;;4957366;28;20054;-67
2022/06/25 12:07:48;;;;;;;7.43;3.63;;;;;;;;;;4973725;28;20050;-67
2022/06/25 12:10:19;;;;;;;6.93;3.60;;;;;;;;;;4957203;28;20055;-68
2022/06/25 12:12:49;;;;;;;8.88;3.70;;;;;;;;;;4931496;29;20051;-68
2022/06/25 12:15:20;;;;;;;12.82;5.90;;;;;;;;;;4900477;29;20082;-68
2022/06/25 12:17:50;;;;;;;6.47;3.10;;;;;;;;;;4877893;29;20063;-68
2022/06/25 12:20:21;;;;;;;7.70;3.85;;;;;;;;;;4894072;29;20071;-68
2022/06/25 12:22:52;;;;;;;11.30;3.40;;;;;;;;;;4893317;29;20060;-67
2022/06/25 12:25:36;;;;;;;7.25;3.25;;;;;;;;;;4931268;29;20416;-67
2022/06/25 12:28:06;;;;;;;10.35;3.45;;;;;;;;;;4912661;29;20063;-66
2022/06/25 12:30:36;;;;;;;6.70;3.05;;;;;;;;;;4912815;29;20071;-67
2022/06/25 12:33:15;;;;;;;7.05;3.33;;;;;;;;;;4912755;29;20067;-67
2022/06/25 12:35:46;;;;;;;8.13;3.20;;;;;;;;;;4937182;28;20496;-67
2022/06/25 12:38:16;;;;;;;8.70;4.30;;;;;;;;;;4918824;28;20059;-67
2022/06/25 12:40:48;;;;;;;6.80;3.53;;;;;;;;;;4951100;28;20066;-66
2022/06/25 12:43:21;;;;;;;8.23;3.70;;;;;;;;;;4950831;28;20504;-67
2022/06/25 12:45:55;;;;;;;9.88;3.75;;;;;;;;;;4921133;29;20066;-67
2022/06/25 12:48:29;;;;;;;6.53;2.90;;;;;;;;;;4950492;28;20459;-66
2022/06/25 12:51:12;;;;;;;7.78;3.63;;;;;;;;;;4964672;28;20062;-67
2022/06/25 12:53:44;;;;;;;9.43;4.45;;;;;;;;;;4969878;28;20070;-67
2022/06/25 12:56:14;;;;;;;10.15;4.03;;;;;;;;;;4969950;28;20059;-67
2022/06/25 12:58:45;;;;;;;9.57;4.15;;;;;;;;;;4970100;28;20055;-67
2022/06/25 13:01:27;;;;;;;8.52;4.45;;;;;;;;;;4957801;28;20058;-67
2022/06/25 13:03:58;;;;;;;7.50;3.78;;;;;;;;;;5002382;28;20417;-67
2022/06/25 13:06:28;;;;;;;7.60;4.28;;;;;;;;;;5040361;28;20468;-67
2022/06/25 13:08:58;;;;;;;8.77;4.18;;;;;;;;;;5015628;28;20060;-67
2022/06/25 13:11:28;;;;;;;7.95;3.38;;;;;;;;;;5048260;28;20091;-67
2022/06/25 13:13:59;;;;;;;6.70;2.78;;;;;;;;;;5048285;28;20496;-67
2022/06/25 13:16:29;;;;;;;6.38;3.08;;;;;;;;;;4992095;28;20053;-68
2022/06/25 13:18:59;;;;;;;6.75;3.47;;;;;;;;;;5008771;28;20378;-67
2022/06/25 13:21:29;;;;;;;6.55;3.00;;;;;;;;;;5008926;28;20061;-68
2022/06/25 13:23:59;;;;;;;14.52;6.35;;;;;;;;;;4990548;28;20486;-67
2022/06/25 13:26:30;;;;;;;11.85;3.85;;;;;;;;;;4946938;28;20051;-68
2022/06/25 13:29:00;;;;;;;8.65;3.92;;;;;;;;;;4950349;28;20071;-67
2022/06/25 13:31:31;;;;;;;15.90;6.35;;;;;;;;;;4934811;29;20067;-68
2022/06/25 13:34:01;;;;;;;11.90;4.65;;;;;;;;;;4934693;29;20060;-67
2022/06/25 13:36:31;;;;;;;23.20;13.77;;;;;;;;;;4934569;29;20052;-67
2022/06/25 13:39:02;;;;;;;15.05;6.93;;;;;;;;;;4887437;29;20063;-67
2022/06/25 13:41:35;;;;;;;11.18;4.95;;;;;;;;;;4903375;29;20063;-68
2022/06/25 13:44:06;;;;;;;20.23;7.75;;;;;;;;;;4972735;28;20054;-67
2022/06/25 13:46:37;;;;;;;9.98;4.45;;;;;;;;;;4972967;28;20059;-68
2022/06/25 13:49:07;;;;;;;8.82;3.97;;;;;;;;;;4940795;28;20055;-67
2022/06/25 13:51:39;;;;;;;8.77;4.57;;;;;;;;;;4988908;28;20050;-68
2022/06/25 13:54:09;;;;;;;9.23;4.75;;;;;;;;;;4998288;28;20498;-67
2022/06/25 13:56:39;;;;;;;12.57;4.72;;;;;;;;;;4997168;28;20069;-67
2022/06/25 13:59:09;;;;;;;11.52;5.35;;;;;;;;;;5051431;28;20052;-68
2022/06/25 14:01:40;;;;;;;12.00;5.50;;;;;;;;;;5041394;28;20056;-68
2022/06/25 14:04:10;;;;;;;13.68;6.30;;;;;;;;;;5037730;28;20063;-68
2022/06/25 14:06:42;;;;;;;12.85;5.50;;;;;;;;;;5071485;28;20412;-68
2022/06/25 14:09:13;;;;;;;10.65;5.35;;;;;;;;;;5021536;28;20504;-68
2022/06/25 14:11:44;;;;;;;11.15;5.55;;;;;;;;;;5054979;28;20049;-67
2022/06/25 14:14:15;;;;;;;11.63;5.60;;;;;;;;;;5050943;28;20049;-68
2022/06/25 14:16:45;;;;;;;14.13;5.80;;;;;;;;;;5014891;28;20061;-68
2022/06/25 14:19:15;;;;;;;8.93;4.72;;;;;;;;;;5030913;28;20512;-67
2022/06/25 14:21:48;;;;;;;10.25;4.05;;;;;;;;;;5011186;28;20054;-68
2022/06/25 14:25:20;;;;;;;;;;;;;;;;;;4992092;28;20088;-66
2022/06/25 14:27:08;;;;;;;8.90;4.30;;;;;;;;;;4991527;28;19965;-67
2022/06/25 14:29:38;;;;;;;10.85;6.20;;;;;;;;;;5007329;28;20506;-66
2022/06/25 14:32:08;;;;;;;14.15;5.13;;;;;;;;;;4991532;28;20054;-67
2022/06/25 14:34:39;;;;;;;12.57;5.70;;;;;;;;;;4990977;28;20062;-67
2022/06/25 14:42:47;;;;;;;11.40;4.85;;;;;;;;;;5013881;28;20049;-68
2022/06/25 14:45:18;;;;;;;11.80;6.20;;;;;;;;;;5030512;28;20068;-67
2022/06/25 14:47:49;;;;;;;12.63;6.30;;;;;;;;;;5030550;28;20068;-66
2022/06/25 14:50:19;;;;;;;12.35;6.53;;;;;;;;;;5014348;28;20490;-67
2022/06/25 14:52:49;;;;;;;12.18;5.85;;;;;;;;;;4993227;28;20469;-68
2022/06/25 14:55:20;;;;;;;12.18;5.53;;;;;;;;;;5010431;28;20046;-67
2022/06/25 14:57:50;;;;;;;9.63;5.18;;;;;;;;;;5010583;28;20540;-68
2022/06/25 15:00:20;;;;;;;10.27;5.53;;;;;;;;;;5010509;28;20196;-68
2022/06/25 15:02:50;;;;;;;11.93;6.00;;;;;;;;;;5010167;28;20149;-68
2022/06/25 15:05:23;;;;;;;11.90;6.07;;;;;;;;;;5010128;28;20079;-68
2022/06/25 15:07:55;;;;;;;12.48;6.30;;;;;;;;;;5010608;28;20126;-68
2022/06/25 15:10:25;;;;;;;12.68;6.72;;;;;;;;;;5010331;28;20068;-67
2022/06/25 15:12:56;;;;;;;11.68;6.47;;;;;;;;;;5010052;28;20062;-68
2022/06/25 15:15:27;;;;;;;9.88;5.28;;;;;;;;;;5010384;28;20521;-68
2022/06/25 15:17:57;;;;;;;12.02;5.35;;;;;;;;;;5009401;28;20680;-68
2022/06/25 15:20:27;;;;;;;9.90;5.38;;;;;;;;;;5003453;28;20523;-69
2022/06/25 15:22:57;;;;;;;11.20;5.60;;;;;;;;;;4990245;28;20055;-67
2022/06/25 15:25:28;;;;;;;11.27;5.47;;;;;;;;;;4990540;28;20055;-68
2022/06/25 15:27:58;;;;;;;8.48;4.50;;;;;;;;;;4983429;28;20051;-68
2022/06/25 15:30:28;;;;;;;8.48;4.88;;;;;;;;;;4965192;28;20443;-67
2022/06/25 15:32:58;;;;;;;10.75;4.97;;;;;;;;;;4980634;28;20062;-68
2022/06/25 15:35:29;;;;;;;9.30;3.90;;;;;;;;;;4990173;28;20066;-68